createdAt,value
2018-05-07T04:09:43.844Z,25
2018-05-07T04:10:09.316Z,25
2018-05-07T04:10:34.884Z,25
2018-05-07T04:11:00.480Z,25
2018-05-07T04:11:25.893Z,25
2018-05-07T04:11:51.311Z,25
2018-05-07T04:12:16.889Z,25
2018-05-07T04:12:42.472Z,25
2018-05-07T04:13:08.108Z,25
2018-05-07T04:13:33.584Z,25
2018-05-07T04:13:58.991Z,25
2018-05-07T04:14:24.453Z,25
2018-05-07T04:14:49.897Z,30
2018-05-07T04:15:15.372Z,30
2018-05-07T04:15:40.960Z,30
2018-05-07T04:16:06.478Z,30
2018-05-07T04:16:31.972Z,30
2018-05-07T04:16:57.562Z,30
2018-05-07T04:17:23.009Z,30
2018-05-07T04:17:48.449Z,30
2018-05-07T04:18:13.919Z,30
2018-05-07T04:19:27.735Z,30
2018-05-07T04:19:53.259Z,35
2018-05-07T04:20:18.699Z,35
2018-05-07T04:20:44.163Z,35
2018-05-07T04:21:09.664Z,35
2018-05-07T04:21:35.120Z,35
2018-05-07T04:22:00.719Z,35
2018-05-07T04:22:26.174Z,35
2018-05-07T04:22:51.791Z,35
2018-05-07T04:23:17.242Z,35
2018-05-07T04:23:42.921Z,35
2018-05-07T04:24:08.349Z,35
2018-05-07T04:24:33.837Z,35
2018-05-07T04:24:59.326Z,40
2018-05-07T04:25:24.856Z,40
2018-05-07T04:25:50.324Z,40
2018-05-07T04:26:59.083Z,40
2018-05-07T04:27:24.541Z,40
2018-05-07T04:27:50.031Z,40
2018-05-07T04:28:15.535Z,40
2018-05-07T04:28:41.007Z,40
2018-05-07T04:29:06.522Z,40
2018-05-07T04:29:32.004Z,40
2018-05-07T04:29:57.500Z,45
2018-05-07T04:30:22.978Z,45
2018-05-07T04:30:48.417Z,45
2018-05-07T04:31:13.860Z,45
2018-05-07T04:31:39.357Z,45
2018-05-07T04:32:04.930Z,45
2018-05-07T04:32:30.374Z,45
2018-05-07T04:32:55.860Z,45
2018-05-07T04:33:21.420Z,45
2018-05-07T04:33:46.942Z,50
2018-05-07T04:34:12.340Z,50
2018-05-07T04:34:37.815Z,50
2018-05-07T04:35:03.340Z,50
2018-05-07T04:35:28.792Z,50
2018-05-07T04:35:54.268Z,55
2018-05-07T04:36:19.748Z,55
2018-05-07T04:36:45.250Z,55
2018-05-07T04:37:10.800Z,60
2018-05-07T04:37:36.474Z,60
2018-05-07T04:38:02.078Z,60
2018-05-07T04:38:27.548Z,65
2018-05-07T04:38:53.102Z,65
2018-05-07T04:39:18.632Z,60
2018-05-07T04:39:44.205Z,65
2018-05-07T04:40:09.717Z,65
2018-05-07T04:40:35.219Z,65
2018-05-07T04:41:00.770Z,70
2018-05-07T04:41:26.239Z,70
2018-05-07T04:41:51.784Z,75
2018-05-07T04:42:17.283Z,75
2018-05-07T04:42:42.810Z,80
2018-05-07T04:43:08.437Z,80
2018-05-07T04:43:33.863Z,85
2018-05-07T04:43:59.427Z,85
2018-05-07T04:44:24.971Z,80
2018-05-07T04:44:50.469Z,85
2018-05-07T04:45:15.954Z,85
2018-05-07T04:45:41.455Z,85
2018-05-07T04:46:06.922Z,90
2018-05-07T04:46:32.450Z,90
2018-05-07T04:46:58.217Z,90
2018-05-07T04:47:23.724Z,90
2018-05-07T04:47:49.311Z,90
2018-05-07T04:48:14.848Z,90
2018-05-07T04:48:40.614Z,95
2018-05-07T04:49:06.159Z,95
2018-05-07T04:49:31.686Z,95
2018-05-07T04:49:57.234Z,95
2018-05-07T04:50:22.730Z,90
2018-05-07T04:50:48.228Z,90
2018-05-07T04:51:13.718Z,90
2018-05-07T04:51:39.240Z,95
2018-05-07T04:52:04.727Z,95
2018-05-07T04:52:30.274Z,95
2018-05-07T04:52:55.763Z,100
2018-05-07T04:53:21.258Z,100
2018-05-07T04:53:46.746Z,100
2018-05-07T04:54:12.213Z,100
2018-05-07T04:54:37.729Z,100
2018-05-07T04:55:03.329Z,105
2018-05-07T04:55:28.838Z,105
2018-05-07T04:55:54.317Z,105
2018-05-07T04:56:19.805Z,105
2018-05-07T04:56:45.344Z,105
2018-05-07T04:57:10.856Z,105
2018-05-07T04:57:36.308Z,105
2018-05-07T04:58:01.765Z,110
2018-05-07T04:58:27.288Z,110
2018-05-07T04:58:52.777Z,110
2018-05-07T04:59:18.239Z,110
2018-05-07T04:59:43.719Z,110
2018-05-07T05:00:09.225Z,110
2018-05-07T05:00:34.694Z,110
2018-05-07T05:01:48.521Z,115
2018-05-07T05:02:14.002Z,115
2018-05-07T05:02:39.495Z,115
2018-05-07T05:03:04.957Z,120
2018-05-07T05:03:30.453Z,115
2018-05-07T05:03:55.947Z,115
2018-05-07T05:04:21.450Z,115
2018-05-07T05:04:46.957Z,120
2018-05-07T05:05:12.486Z,120
2018-05-07T05:05:37.959Z,120
2018-05-07T05:06:03.488Z,120
2018-05-07T05:06:29.000Z,120
2018-05-07T05:06:54.458Z,120
2018-05-07T05:07:19.992Z,120
2018-05-07T05:07:45.557Z,120
2018-05-07T05:08:10.984Z,120
2018-05-07T05:08:36.453Z,125
2018-05-07T05:09:01.918Z,125
2018-05-07T05:10:15.710Z,125
2018-05-07T05:10:41.212Z,125
2018-05-07T05:11:06.668Z,125
2018-05-07T05:11:32.123Z,125
2018-05-07T05:11:57.606Z,125
2018-05-07T05:12:23.149Z,125
2018-05-07T05:12:48.627Z,125
2018-05-07T05:13:14.098Z,125
2018-05-07T05:13:39.535Z,125
2018-05-07T05:14:05.120Z,125
2018-05-07T05:14:30.520Z,125
2018-05-07T05:14:56.009Z,125
2018-05-07T05:15:21.495Z,130
2018-05-07T05:15:46.979Z,130
2018-05-07T05:16:12.417Z,130
2018-05-07T05:16:37.884Z,130
2018-05-07T05:17:03.337Z,135
2018-05-07T05:17:28.861Z,135
2018-05-07T05:17:54.349Z,135
2018-05-07T05:18:19.884Z,135
2018-05-07T05:18:45.473Z,135
2018-05-07T05:19:10.845Z,140
2018-05-07T05:19:36.380Z,140
2018-05-07T05:20:01.953Z,140
2018-05-07T05:20:27.403Z,145
2018-05-07T05:20:52.864Z,145
2018-05-07T05:21:18.422Z,145
2018-05-07T05:21:43.891Z,145
2018-05-07T05:22:09.453Z,145
2018-05-07T05:22:34.932Z,150
2018-05-07T05:23:00.455Z,160
2018-05-07T05:23:25.967Z,160
2018-05-07T05:23:51.442Z,160
2018-05-07T05:24:16.950Z,160
2018-05-07T05:24:42.465Z,160
2018-05-07T05:25:07.981Z,160
2018-05-07T05:25:33.626Z,165
2018-05-07T05:25:59.225Z,165
2018-05-07T05:26:24.716Z,165
2018-05-07T05:26:50.218Z,165
2018-05-07T05:27:15.743Z,165
2018-05-07T05:27:41.279Z,165
2018-05-07T05:28:06.870Z,165
2018-05-07T05:28:32.446Z,165
2018-05-07T05:28:57.940Z,165
2018-05-07T05:29:23.494Z,165
2018-05-07T05:29:49.007Z,170
2018-05-07T05:30:14.520Z,170
2018-05-07T05:30:40.044Z,170
2018-05-07T05:31:05.564Z,170
2018-05-07T05:31:31.244Z,170
2018-05-07T05:31:56.637Z,170
2018-05-07T05:32:22.162Z,170
2018-05-07T05:32:47.733Z,170
2018-05-07T05:33:13.210Z,170
2018-05-07T05:33:38.700Z,170
2018-05-07T05:34:04.200Z,170
2018-05-07T05:34:29.714Z,170
2018-05-07T05:34:55.228Z,170
2018-05-07T05:35:20.781Z,175
2018-05-07T05:35:46.277Z,175
2018-05-07T05:37:00.128Z,175
2018-05-07T05:37:25.613Z,175
2018-05-07T05:37:51.073Z,175
2018-05-07T05:38:16.625Z,175
2018-05-07T05:38:42.171Z,175
2018-05-07T05:39:07.735Z,175
2018-05-07T05:39:33.269Z,175
2018-05-07T05:39:58.806Z,175
2018-05-07T05:40:24.438Z,175
2018-05-07T05:40:49.983Z,175
2018-05-07T05:41:15.486Z,175
2018-05-07T05:41:41.039Z,175
2018-05-07T05:42:06.604Z,180
2018-05-07T05:42:32.077Z,180
2018-05-07T05:42:57.722Z,180
2018-05-07T05:43:23.129Z,180
2018-05-07T05:43:48.700Z,180
2018-05-07T05:44:14.220Z,180
2018-05-07T05:44:39.766Z,180
2018-05-07T05:45:05.269Z,180
2018-05-07T05:45:30.833Z,185
2018-05-07T05:45:56.334Z,185
2018-05-07T05:46:21.890Z,185
2018-05-07T05:47:30.673Z,185
2018-05-07T05:47:56.159Z,185
2018-05-07T05:48:21.687Z,190
2018-05-07T05:48:47.202Z,190
2018-05-07T05:49:12.693Z,190
2018-05-07T05:49:38.198Z,190
2018-05-07T05:50:03.730Z,195
2018-05-07T05:50:29.230Z,195
2018-05-07T05:50:54.858Z,195
2018-05-07T05:51:20.423Z,200
2018-05-07T05:51:46.023Z,200
2018-05-07T05:52:11.584Z,200
2018-05-07T05:52:37.112Z,205
2018-05-07T05:53:02.613Z,210
2018-05-07T05:53:28.130Z,215
2018-05-07T05:53:53.622Z,225
2018-05-07T05:54:19.210Z,230
2018-05-07T05:54:44.706Z,245
2018-05-07T05:55:10.221Z,260
2018-05-07T05:55:35.897Z,275
2018-05-07T05:56:01.489Z,285
2018-05-07T05:56:27.014Z,300
2018-05-07T05:56:52.421Z,315
2018-05-07T05:57:17.886Z,325
2018-05-07T05:57:43.351Z,335
2018-05-07T05:58:08.838Z,335
2018-05-07T05:58:34.337Z,340
2018-05-07T05:58:59.856Z,345
2018-05-07T05:59:25.382Z,355
2018-05-07T05:59:50.866Z,375
2018-05-07T06:00:16.381Z,390
2018-05-07T06:00:41.824Z,405
2018-05-07T06:01:07.382Z,425
2018-05-07T06:01:33.116Z,420
2018-05-07T06:01:58.676Z,405
2018-05-07T06:02:24.329Z,390
2018-05-07T06:02:49.762Z,385
2018-05-07T06:03:15.333Z,420
2018-05-07T06:03:40.908Z,405
2018-05-07T06:04:06.434Z,425
2018-05-07T06:04:31.903Z,460
2018-05-07T06:04:57.382Z,470
2018-05-07T06:06:20.952Z,555
2018-05-07T06:06:46.437Z,640
2018-05-07T06:07:11.933Z,745
2018-05-07T06:07:37.465Z,840
2018-05-07T06:08:03.017Z,920
2018-05-07T06:08:28.534Z,960
2018-05-07T06:08:54.105Z,995
2018-05-07T06:09:19.550Z,1000
2018-05-07T06:09:45.085Z,1015
2018-05-07T06:10:10.583Z,1020
2018-05-07T06:10:36.058Z,995
2018-05-07T06:11:01.582Z,980
2018-05-07T06:11:27.101Z,975
2018-05-07T06:11:52.654Z,990
2018-05-07T06:12:18.128Z,1005
2018-05-07T06:12:43.633Z,975
2018-05-07T06:13:09.123Z,945
2018-05-07T06:13:34.667Z,915
2018-05-07T06:14:00.170Z,885
2018-05-07T06:14:25.784Z,855
2018-05-07T06:14:51.266Z,845
2018-05-07T06:15:16.743Z,860
2018-05-07T06:15:42.237Z,810
2018-05-07T06:16:07.678Z,730
2018-05-07T06:16:33.216Z,620
2018-05-07T06:16:58.696Z,595
2018-05-07T06:17:24.268Z,440
2018-05-07T06:17:49.812Z,325
2018-05-07T06:18:15.354Z,305
2018-05-07T06:18:40.870Z,295
2018-05-07T06:19:06.408Z,290
2018-05-07T06:19:31.912Z,285
2018-05-07T06:19:57.408Z,285
2018-05-07T06:20:22.927Z,300
2018-05-07T06:20:48.421Z,390
2018-05-07T06:21:14.061Z,460
2018-05-07T06:21:39.486Z,575
2018-05-07T06:22:04.954Z,655
2018-05-07T06:22:30.510Z,710
2018-05-07T06:22:56.055Z,770
2018-05-07T06:23:21.803Z,845
2018-05-07T06:23:47.363Z,915
2018-05-07T06:24:12.896Z,980
2018-05-07T06:24:38.377Z,1015
2018-05-07T06:25:04.092Z,1015
2018-05-07T06:25:29.503Z,1010
2018-05-07T06:25:55.235Z,1010
2018-05-07T06:26:20.752Z,1030
2018-05-07T06:26:46.307Z,1060
2018-05-07T06:27:11.785Z,1085
2018-05-07T06:27:37.356Z,1080
2018-05-07T06:28:03.031Z,1020
2018-05-07T06:28:28.598Z,890
2018-05-07T06:28:54.618Z,720
2018-05-07T06:29:21.028Z,575
2018-05-07T06:29:46.439Z,455
2018-05-07T06:30:11.988Z,340
2018-05-07T06:30:37.459Z,255
2018-05-07T06:31:02.958Z,235
2018-05-07T06:31:28.489Z,225
2018-05-07T06:31:54.066Z,220
2018-05-07T06:32:19.673Z,215
2018-05-07T06:32:45.146Z,210
2018-05-07T06:33:10.846Z,210
2018-05-07T06:33:36.416Z,205
2018-05-07T06:34:01.993Z,205
2018-05-07T06:34:27.536Z,200
2018-05-07T06:34:52.989Z,200
2018-05-07T06:35:18.563Z,195
2018-05-07T06:35:44.102Z,195
2018-05-07T06:36:09.615Z,195
2018-05-07T06:36:35.229Z,195
2018-05-07T06:37:00.870Z,195
2018-05-07T06:37:26.691Z,195
2018-05-07T06:37:52.185Z,195
2018-05-07T06:38:17.808Z,195
2018-05-07T06:38:43.315Z,195
2018-05-07T06:39:08.951Z,195
2018-05-07T06:39:34.561Z,195
2018-05-07T06:40:00.322Z,195
2018-05-07T06:40:25.999Z,195
2018-05-07T06:40:51.590Z,190
2018-05-07T06:41:17.278Z,190
2018-05-07T06:41:43.003Z,190
2018-05-07T06:42:08.634Z,190
2018-05-07T06:42:34.591Z,190
2018-05-07T06:43:00.144Z,190
2018-05-07T06:43:25.810Z,190
2018-05-07T06:43:51.417Z,190
2018-05-07T06:44:17.113Z,190
2018-05-07T06:44:42.645Z,190
2018-05-07T06:45:08.173Z,190
2018-05-07T06:45:33.810Z,190
2018-05-07T06:45:59.359Z,185
2018-05-07T06:46:24.867Z,185
2018-05-07T06:46:50.383Z,185
2018-05-07T06:47:15.987Z,185
2018-05-07T06:47:41.606Z,185
2018-05-07T06:48:07.145Z,185
2018-05-07T06:48:32.738Z,185
2018-05-07T06:48:58.398Z,190
2018-05-07T06:50:08.873Z,195
2018-05-07T06:50:35.235Z,195
2018-05-07T06:51:00.546Z,200
2018-05-07T06:51:26.058Z,200
2018-05-07T06:51:51.604Z,205
2018-05-07T06:52:17.233Z,210
2018-05-07T06:52:42.967Z,210
2018-05-07T06:53:08.442Z,215
2018-05-07T06:53:33.958Z,215
2018-05-07T06:53:59.465Z,220
2018-05-07T06:54:25.002Z,220
2018-05-07T06:54:50.622Z,225
2018-05-07T06:55:16.087Z,225
2018-05-07T06:55:41.675Z,230
2018-05-07T06:56:07.275Z,230
2018-05-07T06:56:32.909Z,235
2018-05-07T06:56:58.384Z,245
2018-05-07T06:57:23.946Z,245
2018-05-07T06:57:49.442Z,260
2018-05-07T06:58:14.983Z,270
2018-05-07T06:58:40.478Z,295
2018-05-07T06:59:06.157Z,365
2018-05-07T06:59:31.723Z,465
2018-05-07T06:59:57.269Z,570
2018-05-07T07:00:23.001Z,680
2018-05-07T07:00:48.323Z,795
2018-05-07T07:01:14.059Z,890
2018-05-07T07:01:39.512Z,950
2018-05-07T07:02:05.141Z,980
2018-05-07T07:02:30.775Z,1020
2018-05-07T07:02:56.295Z,1040
2018-05-07T07:03:21.666Z,1055
2018-05-07T07:03:47.137Z,1090
2018-05-07T07:04:12.714Z,1125
2018-05-07T07:04:38.456Z,1125
2018-05-07T07:05:03.959Z,1120
2018-05-07T07:05:29.572Z,1115
2018-05-07T07:05:55.159Z,1095
2018-05-07T07:06:20.771Z,1100
2018-05-07T07:06:46.292Z,1100
2018-05-07T07:07:11.840Z,1105
2018-05-07T07:07:37.357Z,1110
2018-05-07T07:08:02.985Z,1105
2018-05-07T07:08:28.747Z,1125
2018-05-07T07:08:54.255Z,1160
2018-05-07T07:09:19.780Z,1210
2018-05-07T07:09:45.254Z,1255
2018-05-07T07:10:10.836Z,1290
2018-05-07T07:10:36.357Z,1295
2018-05-07T07:11:01.925Z,1290
2018-05-07T07:11:27.432Z,1300
2018-05-07T07:11:52.851Z,1325
2018-05-07T07:12:18.568Z,1370
2018-05-07T07:12:44.172Z,1390
2018-05-07T07:13:09.827Z,1385
2018-05-07T07:13:35.344Z,1380
2018-05-07T07:14:00.859Z,1360
2018-05-07T07:14:26.434Z,1375
2018-05-07T07:14:52.132Z,1390
2018-05-07T07:15:17.717Z,1400
2018-05-07T07:15:43.313Z,1365
2018-05-07T07:16:08.797Z,1355
2018-05-07T07:16:34.360Z,1370
2018-05-07T07:16:59.950Z,1405
2018-05-07T07:17:25.481Z,1415
2018-05-07T07:17:51.025Z,1425
2018-05-07T07:18:16.641Z,1370
2018-05-07T07:18:42.248Z,1270
2018-05-07T07:19:07.955Z,1100
2018-05-07T07:19:33.574Z,920
2018-05-07T07:19:59.588Z,865
2018-05-07T07:20:25.260Z,830
2018-05-07T07:20:50.843Z,905
2018-05-07T07:21:16.400Z,985
2018-05-07T07:21:42.061Z,1105
2018-05-07T07:22:07.552Z,1240
2018-05-07T07:22:33.066Z,1365
2018-05-07T07:22:58.581Z,1430
2018-05-07T07:23:24.153Z,1395
2018-05-07T07:23:49.733Z,1305
2018-05-07T07:24:15.287Z,1230
2018-05-07T07:24:40.927Z,1240
2018-05-07T07:25:06.459Z,1295
2018-05-07T07:25:32.116Z,1350
2018-05-07T07:25:57.602Z,1365
2018-05-07T07:26:23.243Z,1360
2018-05-07T07:26:48.853Z,1355
2018-05-07T07:27:14.433Z,1365
2018-05-07T07:27:40.051Z,1410
2018-05-07T07:28:05.678Z,1435
2018-05-07T07:28:31.135Z,1445
2018-05-07T07:28:56.659Z,1455
2018-05-07T07:29:22.219Z,1425
2018-05-07T07:29:47.873Z,1410
2018-05-07T07:30:13.374Z,1425
2018-05-07T07:30:38.922Z,1430
2018-05-07T07:31:04.511Z,1430
2018-05-07T07:31:30.074Z,1425
2018-05-07T07:31:55.675Z,1155
2018-05-07T07:32:21.248Z,1300
2018-05-07T07:32:46.845Z,925
2018-05-07T07:33:12.441Z,910
2018-05-07T07:33:37.953Z,690
2018-05-07T07:34:03.615Z,505
2018-05-07T07:34:29.116Z,360
2018-05-07T07:34:54.904Z,290
2018-05-07T07:35:20.565Z,270
2018-05-07T07:35:46.130Z,255
2018-05-07T07:36:11.677Z,260
2018-05-07T07:36:37.246Z,245
2018-05-07T07:37:03.112Z,245
2018-05-07T07:37:28.488Z,235
2018-05-07T07:37:54.176Z,230
2018-05-07T07:38:19.692Z,225
2018-05-07T07:38:45.253Z,225
2018-05-07T07:39:11.021Z,220
2018-05-07T07:39:36.563Z,220
2018-05-07T07:40:02.181Z,215
2018-05-07T07:40:27.871Z,215
2018-05-07T07:40:53.455Z,215
2018-05-07T07:41:19.041Z,210
2018-05-07T07:41:44.635Z,210
2018-05-07T07:42:10.194Z,210
2018-05-07T07:42:35.802Z,210
2018-05-07T07:43:01.354Z,205
2018-05-07T07:43:26.955Z,200
2018-05-07T07:43:52.558Z,200
2018-05-07T07:44:18.072Z,200
2018-05-07T07:44:43.697Z,195
2018-05-07T07:45:09.335Z,195
2018-05-07T07:45:34.880Z,195
2018-05-07T07:46:00.408Z,190
2018-05-07T07:46:25.967Z,190
2018-05-07T07:46:51.633Z,190
2018-05-07T07:47:17.843Z,185
2018-05-07T07:47:44.070Z,185
2018-05-07T07:48:09.574Z,185
2018-05-07T07:48:35.217Z,185
2018-05-07T07:49:00.741Z,185
2018-05-07T07:49:26.293Z,185
2018-05-07T07:49:51.928Z,180
2018-05-07T07:50:17.493Z,180
2018-05-07T07:50:43.095Z,180
2018-05-07T07:51:08.622Z,180
2018-05-07T07:51:36.863Z,180
2018-05-07T07:52:03.951Z,180
2018-05-07T07:52:29.386Z,180
2018-05-07T07:52:54.877Z,175
2018-05-07T07:53:20.509Z,175
2018-05-07T07:53:46.097Z,175
2018-05-07T07:54:13.000Z,175
2018-05-07T07:54:39.803Z,175
2018-05-07T07:55:07.271Z,175
2018-05-07T07:55:35.112Z,175
2018-05-07T07:56:02.329Z,175
2018-05-07T07:56:28.812Z,170
2018-05-07T07:56:54.400Z,170
2018-05-07T07:57:21.795Z,170
2018-05-07T07:57:47.424Z,170
2018-05-07T07:58:14.815Z,170
2018-05-07T07:58:40.826Z,170
2018-05-07T07:59:06.462Z,170
2018-05-07T07:59:32.034Z,170
2018-05-07T07:59:57.636Z,170
2018-05-07T08:00:23.098Z,170
2018-05-07T08:01:48.293Z,170
2018-05-07T08:02:15.445Z,170
2018-05-07T08:02:40.955Z,170
2018-05-07T08:03:06.517Z,170
2018-05-07T08:03:32.259Z,170
2018-05-07T08:03:57.873Z,170
2018-05-07T08:04:24.583Z,170
2018-05-07T08:04:50.082Z,170
2018-05-07T08:05:15.710Z,170
2018-05-07T08:05:41.197Z,170
2018-05-07T08:06:06.755Z,170
2018-05-07T08:06:32.302Z,170
2018-05-07T08:06:57.822Z,170
2018-05-07T08:07:23.308Z,170
2018-05-07T08:07:48.868Z,170
2018-05-07T08:08:14.410Z,170
2018-05-07T08:08:39.943Z,170
2018-05-07T08:09:05.475Z,165
2018-05-07T08:09:31.032Z,165
2018-05-07T08:09:56.678Z,165
2018-05-07T08:10:22.349Z,165
2018-05-07T08:10:47.941Z,165
2018-05-07T08:11:13.451Z,165
2018-05-07T08:11:39.131Z,165
2018-05-07T08:12:04.742Z,165
2018-05-07T08:12:30.249Z,165
2018-05-07T08:12:55.794Z,165
2018-05-07T08:13:21.361Z,165
2018-05-07T08:13:47.041Z,165
2018-05-07T08:14:12.879Z,165
2018-05-07T08:14:38.454Z,165
2018-05-07T08:15:04.296Z,165
2018-05-07T08:15:30.037Z,165
2018-05-07T08:15:55.929Z,165
2018-05-07T08:16:22.356Z,165
2018-05-07T08:16:47.969Z,165
2018-05-07T08:17:14.573Z,165
2018-05-07T08:17:41.072Z,165
2018-05-07T08:18:06.875Z,160
2018-05-07T08:18:33.320Z,160
2018-05-07T08:18:59.283Z,160
2018-05-07T08:19:25.749Z,160
2018-05-07T08:19:51.368Z,160
2018-05-07T08:20:17.557Z,160
2018-05-07T08:20:42.918Z,160
2018-05-07T08:21:09.801Z,160
2018-05-07T08:21:35.497Z,160
2018-05-07T08:22:00.908Z,160
2018-05-07T08:22:26.491Z,160
2018-05-07T08:22:51.974Z,160
2018-05-07T08:23:17.550Z,160
2018-05-07T08:23:43.232Z,160
2018-05-07T08:24:08.806Z,160
2018-05-07T08:24:34.459Z,160
2018-05-07T08:25:00.203Z,160
2018-05-07T08:25:25.802Z,160
2018-05-07T08:25:51.465Z,160
2018-05-07T08:26:17.033Z,160
2018-05-07T08:26:42.719Z,160
2018-05-07T08:27:08.285Z,160
2018-05-07T08:27:33.857Z,160
2018-05-07T08:27:59.388Z,160
2018-05-07T08:28:24.946Z,160
2018-05-07T08:28:50.531Z,160
2018-05-07T08:29:16.064Z,160
2018-05-07T08:29:41.761Z,155
2018-05-07T08:30:07.398Z,155
2018-05-07T08:30:33.042Z,155
2018-05-07T08:30:58.692Z,155
2018-05-07T08:31:24.288Z,155
2018-05-07T08:31:49.978Z,155
2018-05-07T08:32:15.564Z,155
2018-05-07T08:32:42.035Z,155
2018-05-07T08:33:07.524Z,155
2018-05-07T08:33:33.125Z,155
2018-05-07T08:33:58.754Z,155
2018-05-07T08:34:24.535Z,155
2018-05-07T08:34:50.360Z,155
2018-05-07T08:35:16.135Z,155
2018-05-07T08:35:41.723Z,155
2018-05-07T08:36:07.384Z,155
2018-05-07T08:36:33.453Z,155
2018-05-07T08:37:00.368Z,155
2018-05-07T08:37:26.029Z,155
2018-05-07T08:37:52.082Z,155
2018-05-07T08:38:18.112Z,155
2018-05-07T08:38:44.336Z,155
2018-05-07T08:39:10.040Z,155
2018-05-07T08:39:35.569Z,155
2018-05-07T08:40:01.097Z,155
2018-05-07T08:40:26.894Z,155
2018-05-07T08:40:52.720Z,155
2018-05-07T08:41:19.137Z,155
2018-05-07T08:41:44.894Z,150
2018-05-07T08:42:10.581Z,150
2018-05-07T08:42:36.115Z,150
2018-05-07T08:43:02.026Z,150
2018-05-07T08:43:27.730Z,150
2018-05-07T08:43:53.329Z,150
2018-05-07T08:44:18.926Z,150
2018-05-07T08:44:44.447Z,150
2018-05-07T08:45:10.010Z,150
2018-05-07T08:45:35.710Z,150
2018-05-07T08:46:01.286Z,150
2018-05-07T08:46:26.948Z,150
2018-05-07T08:46:52.499Z,150
2018-05-07T08:47:18.034Z,150
2018-05-07T08:47:43.668Z,150
2018-05-07T08:48:09.207Z,150
2018-05-07T08:48:34.835Z,150
2018-05-07T08:49:00.358Z,150
2018-05-07T08:49:25.926Z,150
2018-05-07T08:49:51.534Z,150
2018-05-07T08:50:17.121Z,150
2018-05-07T08:50:42.768Z,150
2018-05-07T08:51:08.333Z,150
2018-05-07T08:51:33.909Z,150
2018-05-07T08:52:42.747Z,150
2018-05-07T08:53:08.359Z,150
2018-05-07T08:53:33.779Z,150
2018-05-07T08:53:59.378Z,150
2018-05-07T08:54:24.962Z,150
2018-05-07T08:54:50.477Z,145
2018-05-07T08:55:16.026Z,145
2018-05-07T08:55:41.581Z,145
2018-05-07T08:56:07.126Z,145
2018-05-07T08:56:32.701Z,145
2018-05-07T08:56:58.352Z,145
2018-05-07T08:57:23.977Z,145
2018-05-07T08:57:49.579Z,145
2018-05-07T08:58:15.231Z,145
2018-05-07T08:58:40.776Z,145
2018-05-07T08:59:06.481Z,145
2018-05-07T08:59:32.210Z,145
2018-05-07T08:59:57.733Z,145
2018-05-07T09:00:23.333Z,145
2018-05-07T09:00:48.902Z,145
2018-05-07T09:01:14.453Z,145
2018-05-07T09:01:40.031Z,145
2018-05-07T09:02:05.662Z,145
2018-05-07T09:02:31.201Z,145
2018-05-07T09:02:56.814Z,145
2018-05-07T09:03:22.427Z,145
2018-05-07T09:03:48.026Z,145
2018-05-07T09:04:13.527Z,145
2018-05-07T09:04:39.105Z,145
2018-05-07T09:05:04.804Z,145
2018-05-07T09:05:30.323Z,145
2018-05-07T09:05:55.920Z,145
2018-05-07T09:06:21.491Z,145
2018-05-07T09:06:47.087Z,140
2018-05-07T09:07:12.629Z,140
2018-05-07T09:07:38.220Z,140
2018-05-07T09:08:03.807Z,140
2018-05-07T09:08:29.410Z,140
2018-05-07T09:08:54.956Z,140
2018-05-07T09:09:20.556Z,140
2018-05-07T09:09:46.125Z,140
2018-05-07T09:10:11.740Z,140
2018-05-07T09:10:37.218Z,140
2018-05-07T09:11:02.801Z,140
2018-05-07T09:11:28.432Z,140
2018-05-07T09:11:54.001Z,140
2018-05-07T09:12:19.528Z,140
2018-05-07T09:12:45.200Z,140
2018-05-07T09:13:10.819Z,140
2018-05-07T09:13:36.325Z,140
2018-05-07T09:14:01.913Z,140
2018-05-07T09:14:27.403Z,140
2018-05-07T09:14:52.929Z,140
2018-05-07T09:15:19.138Z,140
2018-05-07T09:15:44.597Z,140
2018-05-07T09:16:10.226Z,140
2018-05-07T09:16:35.748Z,140
2018-05-07T09:17:01.231Z,140
2018-05-07T09:17:26.770Z,135
2018-05-07T09:17:52.269Z,135
2018-05-07T09:18:17.850Z,135
2018-05-07T09:18:43.440Z,135
2018-05-07T09:19:08.941Z,135
2018-05-07T09:19:34.414Z,140
2018-05-07T09:20:00.024Z,140
2018-05-07T09:20:25.595Z,135
2018-05-07T09:20:51.292Z,135
2018-05-07T09:21:16.777Z,140
2018-05-07T09:21:42.301Z,135
2018-05-07T09:22:07.863Z,135
2018-05-07T09:22:33.434Z,140
2018-05-07T09:22:59.016Z,135
2018-05-07T09:23:24.580Z,135
2018-05-07T09:23:50.130Z,135
2018-05-07T09:24:15.713Z,135
2018-05-07T09:24:41.336Z,135
2018-05-07T09:25:06.876Z,135
2018-05-07T09:25:32.505Z,135
2018-05-07T09:25:58.065Z,135
2018-05-07T09:26:23.601Z,135
2018-05-07T09:26:49.103Z,135
2018-05-07T09:27:14.662Z,135
2018-05-07T09:27:40.245Z,135
2018-05-07T09:28:05.793Z,135
2018-05-07T09:28:31.320Z,135
2018-05-07T09:28:56.894Z,135
2018-05-07T09:29:22.435Z,135
2018-05-07T09:29:47.974Z,135
2018-05-07T09:30:13.558Z,135
2018-05-07T09:30:39.065Z,135
2018-05-07T09:31:04.621Z,135
2018-05-07T09:31:30.200Z,135
2018-05-07T09:31:55.679Z,135
2018-05-07T09:32:21.316Z,135
2018-05-07T09:32:46.878Z,135
2018-05-07T09:33:12.554Z,135
2018-05-07T09:33:38.192Z,135
2018-05-07T09:34:03.814Z,135
2018-05-07T09:34:29.482Z,135
2018-05-07T09:34:55.011Z,135
2018-05-07T09:35:20.541Z,135
2018-05-07T09:35:46.286Z,135
2018-05-07T09:36:11.940Z,135
2018-05-07T09:36:37.442Z,135
2018-05-07T09:37:03.064Z,130
2018-05-07T09:37:28.717Z,130
2018-05-07T09:37:54.292Z,130
2018-05-07T09:38:19.841Z,130
2018-05-07T09:38:45.363Z,130
2018-05-07T09:39:10.906Z,130
2018-05-07T09:39:36.513Z,130
2018-05-07T09:40:02.088Z,130
2018-05-07T09:40:27.608Z,130
2018-05-07T09:40:53.191Z,130
2018-05-07T09:41:18.904Z,130
2018-05-07T09:41:44.407Z,130
2018-05-07T09:42:09.999Z,130
2018-05-07T09:42:35.621Z,130
2018-05-07T09:43:01.277Z,130
2018-05-07T09:43:26.815Z,130
2018-05-07T09:43:53.023Z,130
2018-05-07T09:44:18.536Z,130
2018-05-07T09:44:44.201Z,130
2018-05-07T09:45:09.914Z,130
2018-05-07T09:45:35.547Z,130
2018-05-07T09:46:01.099Z,130
2018-05-07T09:46:26.642Z,130
2018-05-07T09:46:52.256Z,130
2018-05-07T09:47:17.738Z,130
2018-05-07T09:47:43.319Z,130
2018-05-07T09:48:08.895Z,130
2018-05-07T09:48:34.506Z,130
2018-05-07T09:49:00.035Z,130
2018-05-07T09:49:25.635Z,130
2018-05-07T09:49:51.157Z,130
2018-05-07T09:50:16.827Z,130
2018-05-07T09:50:42.520Z,130
2018-05-07T09:51:08.010Z,130
2018-05-07T09:52:27.092Z,125
2018-05-07T09:52:52.657Z,130
2018-05-07T09:53:18.245Z,125
2018-05-07T09:53:43.756Z,125
2018-05-07T09:54:09.358Z,125
2018-05-07T09:54:34.931Z,125
2018-05-07T09:55:00.493Z,125
2018-05-07T09:55:26.325Z,125
2018-05-07T09:55:51.844Z,130
2018-05-07T09:56:17.383Z,125
2018-05-07T09:56:43.054Z,125
2018-05-07T09:57:08.598Z,130
2018-05-07T09:57:34.093Z,125
2018-05-07T09:57:59.741Z,125
2018-05-07T09:58:25.268Z,125
2018-05-07T09:58:50.761Z,125
2018-05-07T09:59:16.301Z,125
2018-05-07T09:59:41.886Z,125
2018-05-07T10:00:07.409Z,125
2018-05-07T10:00:32.979Z,125
2018-05-07T10:00:58.469Z,125
2018-05-07T10:01:23.994Z,125
2018-05-07T10:01:49.583Z,125
2018-05-07T10:02:15.052Z,125
2018-05-07T10:02:40.634Z,125
2018-05-07T10:03:06.168Z,125
2018-05-07T10:03:31.741Z,120
2018-05-07T10:03:57.251Z,120
2018-05-07T10:04:22.848Z,120
2018-05-07T10:04:48.454Z,120
2018-05-07T10:05:14.039Z,120
2018-05-07T10:05:39.580Z,120
2018-05-07T10:06:05.134Z,120
2018-05-07T10:06:30.682Z,120
2018-05-07T10:06:56.220Z,120
2018-05-07T10:07:21.730Z,120
2018-05-07T10:07:47.304Z,120
2018-05-07T10:08:12.963Z,120
2018-05-07T10:08:38.450Z,120
2018-05-07T10:09:04.073Z,120
2018-05-07T10:09:29.702Z,120
2018-05-07T10:09:55.262Z,120
2018-05-07T10:10:20.887Z,120
2018-05-07T10:10:46.492Z,120
2018-05-07T10:11:12.194Z,120